ケープタウン の空港の天気 - METARとTAF

ケープタウン国際空港 ( FACT / CPT ) - 南アフリカ ケープタウン
飛行場実況気象(Metar)
観測時間08/04 21:00 SAST (08/04 19:00 UTC)
風向・風速南 6m/s
視程10km以上
天気現象
少しの雲 雲底高度 760m
気温14℃
湿度88%
気圧1022hPa
METARFACT 041900Z 19011KT 9999 FEW025 14/12 Q1022 NOSIG
過去の天気等 Google飛行場航空写真 Wunderground天気予報

過去48時間のMETAR

飛行場予報(TAF)
発表時間: 8/04 20:00 SAST (8/04 18:00 UTC)
予報対象時間: 4日20時 SAST ~ 6日2時 SAST
風向・風速南南西 3m/s
視程10km以上
なし
5日2時 SAST ~ 5日10時 SAST に 確率 30% で一時的に
視程1500m
天気現象散在した霧
なし
5日22時 SAST ~ 6日2時 SAST に一時的に
視程1500m
天気現象もや
なし
5日22時 SAST ~ 6日2時 SAST に 確率 40% で一時的に
視程600m
天気現象
なし
TAF AMD FACT 041800Z 0418/0524 20005KT CAVOK TX18/0512Z TN09/0506Z
PROB30 TEMPO 0500/0508 1500 BCFG NSC
TEMPO 0520/0524 1500 BR NSC
PROB40 TEMPO 0520/0524 0600 FG NSC